createdAt,value
2023-02-09T00:02:57.224Z,103170.0
2023-02-09T00:07:57.218Z,103170.0
2023-02-09T00:12:57.225Z,103170.0
2023-02-09T00:17:57.222Z,103170.0
2023-02-09T00:22:57.229Z,103170.0
2023-02-09T00:27:57.270Z,103170.0
2023-02-09T00:32:57.233Z,103160.0
2023-02-09T00:37:57.401Z,103170.0
2023-02-09T00:42:57.233Z,103170.0
2023-02-09T00:47:57.241Z,103160.0
2023-02-09T00:52:57.236Z,103170.0
2023-02-09T00:57:57.233Z,103170.0
2023-02-09T01:02:57.238Z,103170.0
2023-02-09T01:07:57.245Z,103180.0
2023-02-09T01:12:57.232Z,103170.0
2023-02-09T01:17:57.238Z,103180.0
2023-02-09T01:22:57.237Z,103170.0
2023-02-09T01:27:57.295Z,103180.0
2023-02-09T01:32:57.234Z,103180.0
2023-02-09T01:37:57.236Z,103180.0
2023-02-09T01:42:57.241Z,103170.0
2023-02-09T01:47:57.243Z,103170.0
2023-02-09T01:52:57.245Z,103170.0
2023-02-09T01:57:57.246Z,103170.0
2023-02-09T02:02:57.261Z,103160.0
2023-02-09T02:07:57.642Z,103150.0
2023-02-09T02:12:57.246Z,103160.0
2023-02-09T02:17:57.244Z,103150.0
2023-02-09T02:22:57.249Z,103140.0
2023-02-09T02:27:57.251Z,103130.0
2023-02-09T02:32:57.243Z,103140.0
2023-02-09T02:37:57.249Z,103140.0
2023-02-09T02:42:57.241Z,103130.0
2023-02-09T02:47:57.246Z,103130.0
2023-02-09T02:52:57.345Z,103120.0
2023-02-09T02:57:57.256Z,103120.0
2023-02-09T03:02:57.255Z,103110.0
2023-02-09T03:07:57.259Z,103120.0
2023-02-09T03:12:57.259Z,103120.0
2023-02-09T03:17:57.253Z,103110.0
2023-02-09T03:22:57.253Z,103110.0
2023-02-09T03:27:57.332Z,103110.0
2023-02-09T03:32:57.259Z,103100.0
2023-02-09T03:37:57.268Z,103100.0
2023-02-09T03:42:57.260Z,103100.0
2023-02-09T03:47:57.263Z,103100.0
2023-02-09T03:52:57.263Z,103110.0
2023-02-09T03:57:57.266Z,103090.0
2023-02-09T04:02:57.265Z,103090.0
2023-02-09T04:07:57.277Z,103100.0
2023-02-09T04:12:57.266Z,103080.0
2023-02-09T04:17:57.277Z,103070.0
2023-02-09T04:22:57.278Z,103070.0
2023-02-09T04:27:57.305Z,103070.0
2023-02-09T04:32:57.275Z,103050.0
2023-02-09T04:37:57.289Z,103050.0
2023-02-09T04:42:57.272Z,103050.0
2023-02-09T04:47:57.280Z,103050.0
2023-02-09T04:52:57.281Z,103050.0
2023-02-09T04:57:57.419Z,103040.0
2023-02-09T05:02:57.284Z,103040.0
2023-02-09T05:07:57.289Z,103060.0
2023-02-09T05:12:57.317Z,103060.0
2023-02-09T05:17:57.287Z,103060.0
2023-02-09T05:22:57.339Z,103070.0
2023-02-09T05:27:57.341Z,103070.0
2023-02-09T05:32:57.293Z,103060.0
2023-02-09T05:37:57.308Z,103070.0
2023-02-09T05:42:57.292Z,103070.0
2023-02-09T05:47:57.291Z,103080.0
2023-02-09T05:52:57.297Z,103090.0
2023-02-09T05:57:57.292Z,103100.0
2023-02-09T06:02:57.318Z,103090.0
2023-02-09T06:07:57.294Z,103080.0
2023-02-09T06:12:57.306Z,103070.0
2023-02-09T06:17:57.390Z,103070.0
2023-02-09T06:22:57.299Z,103070.0
2023-02-09T06:27:57.346Z,103060.0
2023-02-09T06:32:57.301Z,103060.0
2023-02-09T06:37:57.299Z,103070.0
2023-02-09T06:42:57.305Z,103070.0
2023-02-09T06:47:57.305Z,103080.0
2023-02-09T06:52:57.308Z,103080.0
2023-02-09T06:57:57.333Z,103090.0
2023-02-09T07:02:57.539Z,103110.0
2023-02-09T07:07:57.314Z,103110.0
2023-02-09T07:12:57.314Z,103120.0
2023-02-09T07:17:57.324Z,103120.0
2023-02-09T07:22:57.323Z,103140.0
2023-02-09T07:27:57.327Z,103140.0
2023-02-09T07:32:57.322Z,103130.0
2023-02-09T07:37:57.326Z,103120.0
2023-02-09T07:42:57.324Z,103120.0
2023-02-09T07:47:57.326Z,103140.0
2023-02-09T07:52:57.318Z,103130.0
2023-02-09T07:57:57.338Z,103140.0
2023-02-09T08:02:57.325Z,103160.0
2023-02-09T08:07:57.490Z,103150.0
2023-02-09T08:12:57.378Z,103150.0
2023-02-09T08:17:57.329Z,103150.0
2023-02-09T08:22:57.398Z,103130.0
2023-02-09T08:27:57.406Z,103140.0
2023-02-09T08:32:57.335Z,103130.0
2023-02-09T08:37:57.349Z,103140.0
2023-02-09T08:42:57.359Z,103130.0
2023-02-09T08:47:57.361Z,103120.0
2023-02-09T08:52:57.357Z,103110.0
2023-02-09T08:57:57.356Z,103110.0
2023-02-09T09:02:57.363Z,103100.0
2023-02-09T09:07:57.388Z,103090.0
2023-02-09T09:12:57.398Z,103080.0
2023-02-09T09:17:57.453Z,103110.0
2023-02-09T09:22:57.530Z,103110.0
2023-02-09T09:27:57.666Z,103120.0
2023-02-09T09:32:57.593Z,103110.0
2023-02-09T09:37:57.523Z,103110.0
2023-02-09T09:42:57.669Z,103120.0
2023-02-09T09:47:57.609Z,103110.0
2023-02-09T09:52:57.528Z,103110.0
2023-02-09T09:57:57.275Z,103110.0
2023-02-09T10:02:57.366Z,103110.0
2023-02-09T10:07:57.378Z,103140.0
2023-02-09T10:12:57.357Z,103130.0
2023-02-09T10:17:57.357Z,103160.0
2023-02-09T10:22:57.358Z,103150.0
2023-02-09T10:27:57.395Z,103160.0
2023-02-09T10:32:57.352Z,103160.0
2023-02-09T10:37:57.364Z,103160.0
2023-02-09T10:42:57.356Z,103150.0
2023-02-09T10:47:57.359Z,103150.0
2023-02-09T10:52:57.355Z,103150.0
2023-02-09T10:57:57.360Z,103130.0
2023-02-09T11:02:57.363Z,103140.0
2023-02-09T11:07:57.362Z,103150.0
2023-02-09T11:12:57.368Z,103140.0
2023-02-09T11:17:57.370Z,103120.0
2023-02-09T11:22:57.388Z,103140.0
2023-02-09T11:27:57.462Z,103130.0
2023-02-09T11:32:57.380Z,103140.0
2023-02-09T11:37:57.382Z,103150.0
2023-02-09T11:42:57.548Z,103140.0
2023-02-09T11:47:57.387Z,103150.0
2023-02-09T11:52:57.388Z,103150.0
2023-02-09T11:57:57.382Z,103150.0
2023-02-09T12:02:57.480Z,103140.0
2023-02-09T12:07:57.391Z,103150.0
2023-02-09T12:12:57.390Z,103140.0
2023-02-09T12:17:57.390Z,103130.0
2023-02-09T12:22:57.300Z,103140.0
2023-02-09T12:27:57.332Z,103120.0
2023-02-09T12:32:57.303Z,103110.0
2023-02-09T12:37:57.299Z,103120.0
2023-02-09T12:42:57.312Z,103120.0
2023-02-09T12:47:57.423Z,103120.0
2023-02-09T12:52:57.300Z,103110.0
2023-02-09T12:57:57.413Z,103110.0
2023-02-09T13:02:57.444Z,103110.0
2023-02-09T13:07:57.311Z,103110.0
2023-02-09T13:12:57.312Z,103100.0
2023-02-09T13:17:57.319Z,103100.0
2023-02-09T13:22:57.418Z,103100.0
2023-02-09T13:27:57.393Z,103090.0
2023-02-09T13:32:57.320Z,103060.0
2023-02-09T13:37:57.316Z,103070.0
2023-02-09T13:42:57.329Z,103070.0
2023-02-09T13:47:57.369Z,103080.0
2023-02-09T13:52:57.358Z,103090.0
2023-02-09T13:57:57.362Z,103100.0
2023-02-09T14:02:57.457Z,103100.0
2023-02-09T14:07:57.330Z,103110.0
2023-02-09T14:12:57.341Z,103120.0
2023-02-09T14:17:57.338Z,103110.0
2023-02-09T14:22:57.325Z,103120.0
2023-02-09T14:27:57.362Z,103120.0
2023-02-09T14:32:57.334Z,103120.0
2023-02-09T14:37:57.338Z,103120.0
2023-02-09T14:42:57.358Z,103120.0
2023-02-09T14:47:57.430Z,103110.0
2023-02-09T14:52:57.335Z,103120.0
2023-02-09T14:57:57.340Z,103120.0
2023-02-09T15:03:00.123Z,103120.0
2023-02-09T15:07:57.341Z,103110.0
2023-02-09T15:12:57.339Z,103120.0
2023-02-09T15:17:57.338Z,103120.0
2023-02-09T15:22:57.347Z,103130.0
2023-02-09T15:27:57.380Z,103130.0
2023-02-09T15:32:57.348Z,103120.0
2023-02-09T15:37:57.416Z,103130.0
2023-02-09T15:42:57.339Z,103130.0
2023-02-09T15:47:57.349Z,103150.0
2023-02-09T15:52:57.342Z,103150.0
2023-02-09T15:57:57.442Z,103180.0
2023-02-09T16:02:57.474Z,103180.0
2023-02-09T16:07:57.346Z,103180.0
2023-02-09T16:12:57.361Z,103180.0
2023-02-09T16:17:57.347Z,103190.0
2023-02-09T16:22:57.370Z,103190.0
2023-02-09T16:27:57.395Z,103190.0
2023-02-09T16:32:57.378Z,103190.0
2023-02-09T16:37:57.362Z,103200.0
2023-02-09T16:42:57.372Z,103220.0
2023-02-09T16:47:59.274Z,103220.0
2023-02-09T16:52:57.457Z,103210.0
2023-02-09T16:57:57.483Z,103230.0
2023-02-09T17:02:57.468Z,103240.0
2023-02-09T17:07:57.688Z,103240.0
2023-02-09T17:12:57.370Z,103250.0
2023-02-09T17:17:57.371Z,103260.0
2023-02-09T17:22:57.374Z,103260.0
2023-02-09T17:27:57.436Z,103270.0
2023-02-09T17:32:57.373Z,103280.0
2023-02-09T17:37:57.393Z,103280.0
2023-02-09T17:42:57.377Z,103280.0
2023-02-09T17:47:57.390Z,103280.0
2023-02-09T17:52:57.384Z,103290.0
2023-02-09T17:57:57.391Z,103300.0
2023-02-09T18:02:57.424Z,103280.0
2023-02-09T18:07:57.384Z,103290.0
2023-02-09T18:12:57.520Z,103290.0
2023-02-09T18:17:57.391Z,103290.0
2023-02-09T18:22:57.401Z,103290.0
2023-02-09T18:27:57.473Z,103310.0
2023-02-09T18:32:57.385Z,103310.0
2023-02-09T18:37:57.380Z,103300.0
2023-02-09T18:42:57.478Z,103320.0
2023-02-09T18:47:57.478Z,103320.0
2023-02-09T18:52:57.487Z,103340.0
2023-02-09T18:57:57.381Z,103330.0
2023-02-09T19:02:57.652Z,103330.0
2023-02-09T19:07:57.484Z,103340.0
2023-02-09T19:12:57.503Z,103340.0
2023-02-09T19:17:57.428Z,103330.0
2023-02-09T19:22:57.494Z,103340.0
2023-02-09T19:27:57.530Z,103350.0
2023-02-09T19:32:57.491Z,103340.0
2023-02-09T19:37:57.500Z,103350.0
2023-02-09T19:42:57.508Z,103360.0
2023-02-09T19:47:57.494Z,103370.0
2023-02-09T19:52:57.502Z,103370.0
2023-02-09T19:57:57.505Z,103370.0
2023-02-09T20:02:57.609Z,103370.0
2023-02-09T20:07:57.505Z,103390.0
2023-02-09T20:12:57.409Z,103390.0
2023-02-09T20:17:57.531Z,103400.0
2023-02-09T20:22:57.504Z,103400.0
2023-02-09T20:27:57.474Z,103410.0
2023-02-09T20:32:57.509Z,103400.0
2023-02-09T20:37:57.515Z,103400.0
2023-02-09T20:42:57.521Z,103410.0
2023-02-09T20:47:57.425Z,103410.0
2023-02-09T20:52:57.513Z,103410.0
2023-02-09T20:57:57.435Z,103420.0
2023-02-09T21:02:57.641Z,103420.0
2023-02-09T21:07:57.418Z,103430.0
2023-02-09T21:12:57.514Z,103420.0
2023-02-09T21:17:57.515Z,103430.0
2023-02-09T21:22:57.513Z,103430.0
2023-02-09T21:27:57.549Z,103440.0
2023-02-09T21:32:57.517Z,103440.0
2023-02-09T21:37:57.521Z,103450.0
2023-02-09T21:42:57.526Z,103450.0
2023-02-09T21:47:57.517Z,103440.0
2023-02-09T21:52:57.512Z,103450.0
2023-02-09T21:57:57.508Z,103460.0
2023-02-09T22:02:57.513Z,103460.0
2023-02-09T22:07:57.516Z,103460.0
2023-02-09T22:12:57.516Z,103460.0
2023-02-09T22:17:57.516Z,103450.0
2023-02-09T22:22:57.518Z,103460.0
2023-02-09T22:27:57.550Z,103450.0
2023-02-09T22:32:57.518Z,103440.0
2023-02-09T22:37:57.514Z,103440.0
2023-02-09T22:42:57.513Z,103440.0
2023-02-09T22:47:57.516Z,103450.0
2023-02-09T22:52:57.522Z,103470.0
2023-02-09T22:57:57.526Z,103460.0
2023-02-09T23:02:57.535Z,103460.0
2023-02-09T23:07:57.538Z,103470.0
2023-02-09T23:12:57.548Z,103470.0
2023-02-09T23:17:57.542Z,103480.0
2023-02-09T23:22:57.544Z,103470.0
2023-02-09T23:27:57.592Z,103470.0
2023-02-09T23:32:57.542Z,103470.0
2023-02-09T23:37:57.536Z,103480.0
2023-02-09T23:42:57.537Z,103480.0
2023-02-09T23:47:57.546Z,103480.0
2023-02-09T23:52:57.542Z,103480.0
2023-02-09T23:57:57.542Z,103490.0
